sensor_id;sensor_type;location;lat;lon;timestamp;temperature;humidity
8684;DHT22;4379;59.744;18.206;2023-06-24T00:01:06;9.80;99.90
8684;DHT22;4379;59.744;18.206;2023-06-24T00:03:33;9.80;99.90
8684;DHT22;4379;59.744;18.206;2023-06-24T00:06:04;9.70;99.90
8684;DHT22;4379;59.744;18.206;2023-06-24T00:08:32;9.70;99.90
8684;DHT22;4379;59.744;18.206;2023-06-24T00:11:03;9.60;99.90
8684;DHT22;4379;59.744;18.206;2023-06-24T00:13:30;9.60;99.90
8684;DHT22;4379;59.744;18.206;2023-06-24T00:15:58;9.50;99.90
8684;DHT22;4379;59.744;18.206;2023-06-24T00:18:25;9.50;99.90
8684;DHT22;4379;59.744;18.206;2023-06-24T00:20:56;9.40;99.90
8684;DHT22;4379;59.744;18.206;2023-06-24T00:23:23;9.40;99.90
8684;DHT22;4379;59.744;18.206;2023-06-24T00:25:55;9.40;99.90
8684;DHT22;4379;59.744;18.206;2023-06-24T00:28:23;9.40;99.90
8684;DHT22;4379;59.744;18.206;2023-06-24T00:30:50;9.40;99.90
8684;DHT22;4379;59.744;18.206;2023-06-24T00:33:18;9.40;99.90
8684;DHT22;4379;59.744;18.206;2023-06-24T00:35:47;9.40;99.90
8684;DHT22;4379;59.744;18.206;2023-06-24T00:38:15;9.40;99.90
8684;DHT22;4379;59.744;18.206;2023-06-24T00:40:42;9.30;99.90
8684;DHT22;4379;59.744;18.206;2023-06-24T00:43:09;9.30;99.90
8684;DHT22;4379;59.744;18.206;2023-06-24T00:45:37;9.30;99.90
8684;DHT22;4379;59.744;18.206;2023-06-24T00:48:05;9.20;99.90
8684;DHT22;4379;59.744;18.206;2023-06-24T00:50:33;9.10;99.90
8684;DHT22;4379;59.744;18.206;2023-06-24T00:53:02;9.10;99.90
8684;DHT22;4379;59.744;18.206;2023-06-24T00:55:29;9.00;99.90
8684;DHT22;4379;59.744;18.206;2023-06-24T00:57:56;9.00;99.90
8684;DHT22;4379;59.744;18.206;2023-06-24T01:00:26;9.00;99.90
8684;DHT22;4379;59.744;18.206;2023-06-24T01:02:54;8.90;99.90
8684;DHT22;4379;59.744;18.206;2023-06-24T01:05:22;8.90;99.90
8684;DHT22;4379;59.744;18.206;2023-06-24T01:07:51;8.90;99.90
8684;DHT22;4379;59.744;18.206;2023-06-24T01:10:23;8.90;99.90
8684;DHT22;4379;59.744;18.206;2023-06-24T01:12:51;8.90;99.90
8684;DHT22;4379;59.744;18.206;2023-06-24T01:15:18;8.90;99.90
8684;DHT22;4379;59.744;18.206;2023-06-24T01:20:52;8.90;99.90
8684;DHT22;4379;59.744;18.206;2023-06-24T01:26:19;8.70;99.90
8684;DHT22;4379;59.744;18.206;2023-06-24T01:31:52;8.70;99.90
8684;DHT22;4379;59.744;18.206;2023-06-24T01:39:25;8.60;99.90
8684;DHT22;4379;59.744;18.206;2023-06-24T01:42:00;8.60;99.90
8684;DHT22;4379;59.744;18.206;2023-06-24T01:44:31;8.60;99.90
8684;DHT22;4379;59.744;18.206;2023-06-24T01:46:59;8.60;99.90
8684;DHT22;4379;59.744;18.206;2023-06-24T01:49:29;8.60;99.90
8684;DHT22;4379;59.744;18.206;2023-06-24T01:51:58;8.50;99.90
8684;DHT22;4379;59.744;18.206;2023-06-24T01:54:29;8.50;99.90
8684;DHT22;4379;59.744;18.206;2023-06-24T01:56:59;8.50;99.90
8684;DHT22;4379;59.744;18.206;2023-06-24T01:59:29;8.60;99.90
8684;DHT22;4379;59.744;18.206;2023-06-24T02:01:57;8.60;99.90
8684;DHT22;4379;59.744;18.206;2023-06-24T02:04:27;8.60;99.90
8684;DHT22;4379;59.744;18.206;2023-06-24T02:07:02;8.60;99.90
8684;DHT22;4379;59.744;18.206;2023-06-24T02:09:31;8.60;99.90
8684;DHT22;4379;59.744;18.206;2023-06-24T02:12:01;8.70;99.90
8684;DHT22;4379;59.744;18.206;2023-06-24T02:14:30;8.80;99.90
8684;DHT22;4379;59.744;18.206;2023-06-24T02:17:00;8.80;99.90
8684;DHT22;4379;59.744;18.206;2023-06-24T02:19:30;8.90;99.90
8684;DHT22;4379;59.744;18.206;2023-06-24T02:21:58;8.90;99.90
8684;DHT22;4379;59.744;18.206;2023-06-24T02:24:30;9.00;99.90
8684;DHT22;4379;59.744;18.206;2023-06-24T02:26:58;9.00;99.90
8684;DHT22;4379;59.744;18.206;2023-06-24T02:29:26;9.00;99.90
8684;DHT22;4379;59.744;18.206;2023-06-24T02:31:54;8.90;99.90
8684;DHT22;4379;59.744;18.206;2023-06-24T02:34:23;9.00;99.90
8684;DHT22;4379;59.744;18.206;2023-06-24T02:36:52;9.00;99.90
8684;DHT22;4379;59.744;18.206;2023-06-24T02:39:19;9.10;99.90
8684;DHT22;4379;59.744;18.206;2023-06-24T02:41:46;9.10;99.90
8684;DHT22;4379;59.744;18.206;2023-06-24T02:44:16;9.10;99.90
8684;DHT22;4379;59.744;18.206;2023-06-24T02:46:46;9.20;99.90
8684;DHT22;4379;59.744;18.206;2023-06-24T02:49:15;9.30;99.90
8684;DHT22;4379;59.744;18.206;2023-06-24T02:51:44;9.40;99.90
8684;DHT22;4379;59.744;18.206;2023-06-24T02:54:13;9.40;99.90
8684;DHT22;4379;59.744;18.206;2023-06-24T02:56:42;9.50;99.90
8684;DHT22;4379;59.744;18.206;2023-06-24T02:59:11;9.50;99.90
8684;DHT22;4379;59.744;18.206;2023-06-24T03:01:39;9.50;99.90
8684;DHT22;4379;59.744;18.206;2023-06-24T03:04:07;9.50;99.90
8684;DHT22;4379;59.744;18.206;2023-06-24T03:06:34;9.50;99.90
8684;DHT22;4379;59.744;18.206;2023-06-24T03:09:04;9.60;99.90
8684;DHT22;4379;59.744;18.206;2023-06-24T03:11:31;9.70;99.90
8684;DHT22;4379;59.744;18.206;2023-06-24T03:14:06;9.60;99.90
8684;DHT22;4379;59.744;18.206;2023-06-24T03:16:33;9.60;99.90
8684;DHT22;4379;59.744;18.206;2023-06-24T03:19:02;9.80;99.90
8684;DHT22;4379;59.744;18.206;2023-06-24T03:21:29;10.00;99.90
8684;DHT22;4379;59.744;18.206;2023-06-24T03:23:57;10.10;99.90
8684;DHT22;4379;59.744;18.206;2023-06-24T03:26:34;10.30;99.90
8684;DHT22;4379;59.744;18.206;2023-06-24T03:29:02;10.50;99.90
8684;DHT22;4379;59.744;18.206;2023-06-24T03:31:30;10.60;99.90
8684;DHT22;4379;59.744;18.206;2023-06-24T03:33:57;10.80;99.90
8684;DHT22;4379;59.744;18.206;2023-06-24T03:36:24;11.00;99.90
8684;DHT22;4379;59.744;18.206;2023-06-24T03:38:52;11.20;99.90
8684;DHT22;4379;59.744;18.206;2023-06-24T03:41:19;11.30;99.90
8684;DHT22;4379;59.744;18.206;2023-06-24T03:43:48;11.60;99.90
8684;DHT22;4379;59.744;18.206;2023-06-24T03:46:15;11.80;99.90
8684;DHT22;4379;59.744;18.206;2023-06-24T03:48:43;11.90;99.90
8684;DHT22;4379;59.744;18.206;2023-06-24T03:51:10;12.00;99.90
8684;DHT22;4379;59.744;18.206;2023-06-24T03:53:37;12.30;99.90
8684;DHT22;4379;59.744;18.206;2023-06-24T03:56:04;12.40;99.90
8684;DHT22;4379;59.744;18.206;2023-06-24T03:58:32;12.80;99.90
8684;DHT22;4379;59.744;18.206;2023-06-24T04:01:00;13.10;99.90
8684;DHT22;4379;59.744;18.206;2023-06-24T04:03:27;13.40;99.90
8684;DHT22;4379;59.744;18.206;2023-06-24T04:05:56;13.60;99.90
8684;DHT22;4379;59.744;18.206;2023-06-24T04:08:23;13.90;99.90
8684;DHT22;4379;59.744;18.206;2023-06-24T04:10:57;14.00;99.90
8684;DHT22;4379;59.744;18.206;2023-06-24T04:13:26;14.20;99.90
8684;DHT22;4379;59.744;18.206;2023-06-24T04:15:54;14.20;99.90
8684;DHT22;4379;59.744;18.206;2023-06-24T04:18:21;14.30;99.90
8684;DHT22;4379;59.744;18.206;2023-06-24T04:20:48;14.50;99.90
8684;DHT22;4379;59.744;18.206;2023-06-24T04:23:15;14.70;99.90
8684;DHT22;4379;59.744;18.206;2023-06-24T04:25:43;14.60;99.90
8684;DHT22;4379;59.744;18.206;2023-06-24T04:28:10;14.60;99.90
8684;DHT22;4379;59.744;18.206;2023-06-24T04:30:37;14.60;99.90
8684;DHT22;4379;59.744;18.206;2023-06-24T04:33:07;14.70;99.90
8684;DHT22;4379;59.744;18.206;2023-06-24T04:35:35;14.90;99.90
8684;DHT22;4379;59.744;18.206;2023-06-24T04:38:02;15.10;99.90
8684;DHT22;4379;59.744;18.206;2023-06-24T04:40:30;15.30;99.90
8684;DHT22;4379;59.744;18.206;2023-06-24T04:42:57;15.70;99.90
8684;DHT22;4379;59.744;18.206;2023-06-24T04:45:24;15.80;99.90
8684;DHT22;4379;59.744;18.206;2023-06-24T04:47:52;15.90;99.90
8684;DHT22;4379;59.744;18.206;2023-06-24T04:50:19;16.00;99.90
8684;DHT22;4379;59.744;18.206;2023-06-24T04:52:52;16.30;99.90
8684;DHT22;4379;59.744;18.206;2023-06-24T04:55:22;16.90;99.90
8684;DHT22;4379;59.744;18.206;2023-06-24T04:57:49;17.00;99.90
8684;DHT22;4379;59.744;18.206;2023-06-24T05:00:17;17.10;99.90
8684;DHT22;4379;59.744;18.206;2023-06-24T05:02:44;17.10;99.90
8684;DHT22;4379;59.744;18.206;2023-06-24T05:05:12;17.30;99.90
8684;DHT22;4379;59.744;18.206;2023-06-24T05:07:39;17.50;99.90
8684;DHT22;4379;59.744;18.206;2023-06-24T05:10:07;17.50;99.90
8684;DHT22;4379;59.744;18.206;2023-06-24T05:12:34;17.90;99.90
8684;DHT22;4379;59.744;18.206;2023-06-24T05:15:03;18.00;99.90
8684;DHT22;4379;59.744;18.206;2023-06-24T05:17:31;17.70;99.90
8684;DHT22;4379;59.744;18.206;2023-06-24T05:19:58;18.00;99.90
8684;DHT22;4379;59.744;18.206;2023-06-24T05:22:25;18.30;99.90
8684;DHT22;4379;59.744;18.206;2023-06-24T05:24:53;18.80;99.90
8684;DHT22;4379;59.744;18.206;2023-06-24T05:27:20;19.20;99.90
8684;DHT22;4379;59.744;18.206;2023-06-24T05:29:47;19.60;99.90
8684;DHT22;4379;59.744;18.206;2023-06-24T05:32:14;20.50;99.90
8684;DHT22;4379;59.744;18.206;2023-06-24T05:34:44;21.10;99.90
8684;DHT22;4379;59.744;18.206;2023-06-24T05:37:11;21.30;99.90
8684;DHT22;4379;59.744;18.206;2023-06-24T05:39:39;23.90;99.90
8684;DHT22;4379;59.744;18.206;2023-06-24T05:42:06;26.30;99.90
8684;DHT22;4379;59.744;18.206;2023-06-24T05:44:33;28.70;99.90
8684;DHT22;4379;59.744;18.206;2023-06-24T05:47:01;30.80;98.70
8684;DHT22;4379;59.744;18.206;2023-06-24T05:49:28;29.90;95.70
8684;DHT22;4379;59.744;18.206;2023-06-24T05:51:56;29.20;96.30
8684;DHT22;4379;59.744;18.206;2023-06-24T05:54:23;28.10;96.70
8684;DHT22;4379;59.744;18.206;2023-06-24T05:56:51;26.90;97.00
8684;DHT22;4379;59.744;18.206;2023-06-24T05:59:18;25.80;97.80
8684;DHT22;4379;59.744;18.206;2023-06-24T06:01:45;25.10;98.50
8684;DHT22;4379;59.744;18.206;2023-06-24T06:04:13;25.20;99.00
8684;DHT22;4379;59.744;18.206;2023-06-24T06:06:40;25.60;98.40
8684;DHT22;4379;59.744;18.206;2023-06-24T06:09:08;24.90;98.40
8684;DHT22;4379;59.744;18.206;2023-06-24T06:11:35;24.70;99.40
8684;DHT22;4379;59.744;18.206;2023-06-24T06:14:02;24.30;99.10
8684;DHT22;4379;59.744;18.206;2023-06-24T06:16:29;23.90;99.40
8684;DHT22;4379;59.744;18.206;2023-06-24T06:18:57;24.00;99.80
8684;DHT22;4379;59.744;18.206;2023-06-24T06:21:24;24.80;99.90
8684;DHT22;4379;59.744;18.206;2023-06-24T06:23:51;27.40;97.60
8684;DHT22;4379;59.744;18.206;2023-06-24T06:26:19;27.30;97.30
8684;DHT22;4379;59.744;18.206;2023-06-24T06:28:46;29.00;95.00
8684;DHT22;4379;59.744;18.206;2023-06-24T06:31:14;30.10;94.00
8684;DHT22;4379;59.744;18.206;2023-06-24T06:33:43;32.20;92.10
8684;DHT22;4379;59.744;18.206;2023-06-24T06:36:10;32.40;91.00
8684;DHT22;4379;59.744;18.206;2023-06-24T06:38:37;31.40;92.10
8684;DHT22;4379;59.744;18.206;2023-06-24T06:41:04;32.30;91.40
8684;DHT22;4379;59.744;18.206;2023-06-24T06:43:33;34.00;89.80
8684;DHT22;4379;59.744;18.206;2023-06-24T06:46:00;36.10;85.10
8684;DHT22;4379;59.744;18.206;2023-06-24T06:48:28;35.70;84.10
8684;DHT22;4379;59.744;18.206;2023-06-24T06:50:55;32.70;84.70
8684;DHT22;4379;59.744;18.206;2023-06-24T06:53:22;32.60;87.80
8684;DHT22;4379;59.744;18.206;2023-06-24T06:55:50;34.20;84.70
8684;DHT22;4379;59.744;18.206;2023-06-24T06:58:17;36.40;84.50
8684;DHT22;4379;59.744;18.206;2023-06-24T07:00:45;37.00;81.30
8684;DHT22;4379;59.744;18.206;2023-06-24T07:03:12;36.50;79.80
8684;DHT22;4379;59.744;18.206;2023-06-24T07:05:39;39.00;76.50
8684;DHT22;4379;59.744;18.206;2023-06-24T07:08:07;36.30;77.80
8684;DHT22;4379;59.744;18.206;2023-06-24T07:10:34;36.40;76.90
8684;DHT22;4379;59.744;18.206;2023-06-24T07:13:02;35.50;79.00
8684;DHT22;4379;59.744;18.206;2023-06-24T07:15:29;36.10;76.80
8684;DHT22;4379;59.744;18.206;2023-06-24T07:17:56;36.00;76.20
8684;DHT22;4379;59.744;18.206;2023-06-24T07:20:24;35.90;76.80
8684;DHT22;4379;59.744;18.206;2023-06-24T07:22:52;35.80;77.40
8684;DHT22;4379;59.744;18.206;2023-06-24T07:25:19;37.00;75.00
8684;DHT22;4379;59.744;18.206;2023-06-24T07:27:46;36.40;74.70
8684;DHT22;4379;59.744;18.206;2023-06-24T07:30:13;36.40;73.10
8684;DHT22;4379;59.744;18.206;2023-06-24T07:32:41;35.70;74.60
8684;DHT22;4379;59.744;18.206;2023-06-24T07:35:08;34.50;76.40
8684;DHT22;4379;59.744;18.206;2023-06-24T07:37:36;35.30;77.80
8684;DHT22;4379;59.744;18.206;2023-06-24T07:40:06;35.70;75.80
8684;DHT22;4379;59.744;18.206;2023-06-24T07:42:35;37.20;74.30
8684;DHT22;4379;59.744;18.206;2023-06-24T07:45:02;36.00;75.30
8684;DHT22;4379;59.744;18.206;2023-06-24T07:47:29;36.30;74.20
8684;DHT22;4379;59.744;18.206;2023-06-24T07:49:59;37.00;72.70
8684;DHT22;4379;59.744;18.206;2023-06-24T07:52:26;36.80;74.20
8684;DHT22;4379;59.744;18.206;2023-06-24T07:54:53;36.50;74.90
8684;DHT22;4379;59.744;18.206;2023-06-24T07:57:20;38.00;72.80
8684;DHT22;4379;59.744;18.206;2023-06-24T07:59:47;38.20;71.50
8684;DHT22;4379;59.744;18.206;2023-06-24T08:02:15;38.10;71.00
8684;DHT22;4379;59.744;18.206;2023-06-24T08:04:43;38.90;71.10
8684;DHT22;4379;59.744;18.206;2023-06-24T08:07:11;38.80;69.40
8684;DHT22;4379;59.744;18.206;2023-06-24T08:09:38;36.90;73.30
8684;DHT22;4379;59.744;18.206;2023-06-24T08:12:06;36.10;73.30
8684;DHT22;4379;59.744;18.206;2023-06-24T08:14:33;35.40;75.20
8684;DHT22;4379;59.744;18.206;2023-06-24T08:17:01;34.70;77.00
8684;DHT22;4379;59.744;18.206;2023-06-24T08:19:28;34.20;77.70
8684;DHT22;4379;59.744;18.206;2023-06-24T08:21:55;34.90;76.20
8684;DHT22;4379;59.744;18.206;2023-06-24T08:24:23;33.40;79.10
8684;DHT22;4379;59.744;18.206;2023-06-24T08:26:50;33.80;77.10
8684;DHT22;4379;59.744;18.206;2023-06-24T08:29:17;33.50;76.80
8684;DHT22;4379;59.744;18.206;2023-06-24T08:31:45;32.20;79.60
8684;DHT22;4379;59.744;18.206;2023-06-24T08:34:12;31.80;81.20
8684;DHT22;4379;59.744;18.206;2023-06-24T08:36:39;32.50;80.10
8684;DHT22;4379;59.744;18.206;2023-06-24T08:39:07;31.70;81.40
8684;DHT22;4379;59.744;18.206;2023-06-24T08:41:34;31.30;81.90
8684;DHT22;4379;59.744;18.206;2023-06-24T08:44:02;31.10;83.10
8684;DHT22;4379;59.744;18.206;2023-06-24T08:46:29;30.40;86.20
8684;DHT22;4379;59.744;18.206;2023-06-24T08:49:05;29.90;87.00
8684;DHT22;4379;59.744;18.206;2023-06-24T08:51:40;29.10;87.20
8684;DHT22;4379;59.744;18.206;2023-06-24T08:54:09;28.40;89.70
8684;DHT22;4379;59.744;18.206;2023-06-24T08:56:37;27.10;90.80
8684;DHT22;4379;59.744;18.206;2023-06-24T08:59:06;27.30;90.20
8684;DHT22;4379;59.744;18.206;2023-06-24T09:01:34;26.90;90.30
8684;DHT22;4379;59.744;18.206;2023-06-24T09:04:01;27.20;90.30
8684;DHT22;4379;59.744;18.206;2023-06-24T09:06:28;27.00;88.50
8684;DHT22;4379;59.744;18.206;2023-06-24T09:08:56;26.90;89.20
8684;DHT22;4379;59.744;18.206;2023-06-24T09:11:28;26.70;90.50
8684;DHT22;4379;59.744;18.206;2023-06-24T09:14:00;26.90;90.60
8684;DHT22;4379;59.744;18.206;2023-06-24T09:16:27;26.90;91.00
8684;DHT22;4379;59.744;18.206;2023-06-24T09:18:55;26.90;91.30
8684;DHT22;4379;59.744;18.206;2023-06-24T09:21:24;26.90;91.20
8684;DHT22;4379;59.744;18.206;2023-06-24T09:23:56;27.50;90.60
8684;DHT22;4379;59.744;18.206;2023-06-24T09:26:24;27.70;90.00
8684;DHT22;4379;59.744;18.206;2023-06-24T09:28:52;28.10;90.80
8684;DHT22;4379;59.744;18.206;2023-06-24T09:31:20;28.40;90.20
8684;DHT22;4379;59.744;18.206;2023-06-24T09:33:47;28.60;90.40
8684;DHT22;4379;59.744;18.206;2023-06-24T09:36:15;28.00;90.20
8684;DHT22;4379;59.744;18.206;2023-06-24T09:38:43;28.10;90.70
8684;DHT22;4379;59.744;18.206;2023-06-24T09:41:12;28.50;90.40
8684;DHT22;4379;59.744;18.206;2023-06-24T09:43:42;28.10;90.10
8684;DHT22;4379;59.744;18.206;2023-06-24T09:46:12;28.10;89.50
8684;DHT22;4379;59.744;18.206;2023-06-24T09:48:40;28.10;90.90
8684;DHT22;4379;59.744;18.206;2023-06-24T09:51:08;28.40;90.40
8684;DHT22;4379;59.744;18.206;2023-06-24T09:53:36;27.90;90.60
8684;DHT22;4379;59.744;18.206;2023-06-24T09:56:08;27.60;90.40
8684;DHT22;4379;59.744;18.206;2023-06-24T09:58:37;27.40;90.70
8684;DHT22;4379;59.744;18.206;2023-06-24T10:01:06;27.50;91.00
8684;DHT22;4379;59.744;18.206;2023-06-24T10:03:35;27.60;90.80
8684;DHT22;4379;59.744;18.206;2023-06-24T10:06:05;27.30;90.50
8684;DHT22;4379;59.744;18.206;2023-06-24T10:08:32;27.30;91.00
8684;DHT22;4379;59.744;18.206;2023-06-24T10:11:00;27.60;90.40
8684;DHT22;4379;59.744;18.206;2023-06-24T10:13:29;27.90;90.40
8684;DHT22;4379;59.744;18.206;2023-06-24T10:15:57;27.60;91.00
8684;DHT22;4379;59.744;18.206;2023-06-24T10:20:58;28.00;91.10
8684;DHT22;4379;59.744;18.206;2023-06-24T10:23:34;28.20;90.30
8684;DHT22;4379;59.744;18.206;2023-06-24T10:26:10;27.60;90.70
8684;DHT22;4379;59.744;18.206;2023-06-24T10:34:30;27.70;90.50
8684;DHT22;4379;59.744;18.206;2023-06-24T10:37:19;28.50;90.80
8684;DHT22;4379;59.744;18.206;2023-06-24T10:42:40;28.60;90.30
8684;DHT22;4379;59.744;18.206;2023-06-24T10:47:45;28.50;90.20
8684;DHT22;4379;59.744;18.206;2023-06-24T10:50:15;28.50;90.30
8684;DHT22;4379;59.744;18.206;2023-06-24T10:52:50;27.90;90.90
8684;DHT22;4379;59.744;18.206;2023-06-24T10:55:26;27.70;90.50
8684;DHT22;4379;59.744;18.206;2023-06-24T10:57:54;27.70;90.70
8684;DHT22;4379;59.744;18.206;2023-06-24T11:00:21;27.80;91.30
8684;DHT22;4379;59.744;18.206;2023-06-24T11:02:49;28.00;91.00
8684;DHT22;4379;59.744;18.206;2023-06-24T11:05:17;27.40;90.30
8684;DHT22;4379;59.744;18.206;2023-06-24T11:07:44;27.40;91.30
8684;DHT22;4379;59.744;18.206;2023-06-24T11:10:13;27.10;90.90
8684;DHT22;4379;59.744;18.206;2023-06-24T11:12:42;27.10;91.50
8684;DHT22;4379;59.744;18.206;2023-06-24T11:15:11;27.50;91.50
8684;DHT22;4379;59.744;18.206;2023-06-24T11:17:39;27.50;91.00
8684;DHT22;4379;59.744;18.206;2023-06-24T11:20:09;27.80;90.90
8684;DHT22;4379;59.744;18.206;2023-06-24T11:22:37;27.70;91.50
8684;DHT22;4379;59.744;18.206;2023-06-24T11:25:04;27.90;90.80
8684;DHT22;4379;59.744;18.206;2023-06-24T11:27:32;28.10;91.10
8684;DHT22;4379;59.744;18.206;2023-06-24T11:30:00;28.20;91.30
8684;DHT22;4379;59.744;18.206;2023-06-24T11:32:40;28.40;91.10
8684;DHT22;4379;59.744;18.206;2023-06-24T11:35:10;27.70;91.00
8684;DHT22;4379;59.744;18.206;2023-06-24T11:37:41;27.50;90.70
8684;DHT22;4379;59.744;18.206;2023-06-24T11:40:13;27.70;91.40
8684;DHT22;4379;59.744;18.206;2023-06-24T11:42:43;27.80;91.30
8684;DHT22;4379;59.744;18.206;2023-06-24T11:45:13;27.50;91.30
8684;DHT22;4379;59.744;18.206;2023-06-24T11:47:43;27.70;90.50
8684;DHT22;4379;59.744;18.206;2023-06-24T11:50:10;28.20;90.70
8684;DHT22;4379;59.744;18.206;2023-06-24T11:52:45;28.30;90.50
8684;DHT22;4379;59.744;18.206;2023-06-24T11:55:20;28.30;90.30
8684;DHT22;4379;59.744;18.206;2023-06-24T11:57:59;28.30;90.40
8684;DHT22;4379;59.744;18.206;2023-06-24T12:00:39;27.80;91.20
8684;DHT22;4379;59.744;18.206;2023-06-24T12:03:11;27.50;91.10
8684;DHT22;4379;59.744;18.206;2023-06-24T12:05:40;27.20;91.70
8684;DHT22;4379;59.744;18.206;2023-06-24T12:08:13;27.60;91.90
8684;DHT22;4379;59.744;18.206;2023-06-24T12:10:44;28.10;90.90
8684;DHT22;4379;59.744;18.206;2023-06-24T12:13:12;28.00;90.70
8684;DHT22;4379;59.744;18.206;2023-06-24T12:15:40;27.80;91.50
8684;DHT22;4379;59.744;18.206;2023-06-24T12:18:07;28.00;91.20
8684;DHT22;4379;59.744;18.206;2023-06-24T12:20:35;28.00;91.50
8684;DHT22;4379;59.744;18.206;2023-06-24T12:23:05;28.40;90.70
8684;DHT22;4379;59.744;18.206;2023-06-24T12:25:33;28.40;90.80
8684;DHT22;4379;59.744;18.206;2023-06-24T12:28:00;28.20;90.60
8684;DHT22;4379;59.744;18.206;2023-06-24T12:30:28;27.60;90.60
8684;DHT22;4379;59.744;18.206;2023-06-24T12:32:55;27.50;91.60
8684;DHT22;4379;59.744;18.206;2023-06-24T12:35:23;27.60;91.20
8684;DHT22;4379;59.744;18.206;2023-06-24T12:37:53;27.20;91.00
8684;DHT22;4379;59.744;18.206;2023-06-24T12:40:21;27.20;91.80
8684;DHT22;4379;59.744;18.206;2023-06-24T12:42:48;27.20;91.70
8684;DHT22;4379;59.744;18.206;2023-06-24T12:45:15;26.80;92.20
8684;DHT22;4379;59.744;18.206;2023-06-24T12:47:42;27.00;92.40
8684;DHT22;4379;59.744;18.206;2023-06-24T12:50:10;27.30;91.90
8684;DHT22;4379;59.744;18.206;2023-06-24T12:52:37;27.20;91.90
8684;DHT22;4379;59.744;18.206;2023-06-24T12:55:06;26.90;91.50
8684;DHT22;4379;59.744;18.206;2023-06-24T12:57:35;27.10;91.90
8684;DHT22;4379;59.744;18.206;2023-06-24T13:00:04;26.90;92.10
8684;DHT22;4379;59.744;18.206;2023-06-24T13:02:33;27.00;92.30
8684;DHT22;4379;59.744;18.206;2023-06-24T13:05:01;26.70;92.00
8684;DHT22;4379;59.744;18.206;2023-06-24T13:07:28;26.60;92.40
8684;DHT22;4379;59.744;18.206;2023-06-24T13:09:56;26.90;92.20
8684;DHT22;4379;59.744;18.206;2023-06-24T13:12:23;26.50;92.30
8684;DHT22;4379;59.744;18.206;2023-06-24T13:14:51;26.60;92.60
8684;DHT22;4379;59.744;18.206;2023-06-24T13:17:18;26.80;92.60
8684;DHT22;4379;59.744;18.206;2023-06-24T13:19:45;26.90;92.50
8684;DHT22;4379;59.744;18.206;2023-06-24T13:22:12;27.00;92.60
8684;DHT22;4379;59.744;18.206;2023-06-24T13:24:40;27.10;92.30
8684;DHT22;4379;59.744;18.206;2023-06-24T13:27:07;27.10;92.70
8684;DHT22;4379;59.744;18.206;2023-06-24T13:29:35;27.00;92.20
8684;DHT22;4379;59.744;18.206;2023-06-24T13:32:03;26.70;92.50
8684;DHT22;4379;59.744;18.206;2023-06-24T13:34:31;26.50;92.80
8684;DHT22;4379;59.744;18.206;2023-06-24T13:36:58;26.10;93.00
8684;DHT22;4379;59.744;18.206;2023-06-24T13:39:25;25.90;93.00
8684;DHT22;4379;59.744;18.206;2023-06-24T13:41:56;26.00;93.50
8684;DHT22;4379;59.744;18.206;2023-06-24T13:44:23;26.10;93.20
8684;DHT22;4379;59.744;18.206;2023-06-24T13:46:51;26.20;93.40
8684;DHT22;4379;59.744;18.206;2023-06-24T13:49:20;26.00;93.40
8684;DHT22;4379;59.744;18.206;2023-06-24T13:51:49;25.90;93.70
8684;DHT22;4379;59.744;18.206;2023-06-24T13:54:17;26.00;93.60
8684;DHT22;4379;59.744;18.206;2023-06-24T13:56:45;25.60;93.00
8684;DHT22;4379;59.744;18.206;2023-06-24T13:59:12;25.50;93.10
8684;DHT22;4379;59.744;18.206;2023-06-24T14:01:39;25.50;93.40
8684;DHT22;4379;59.744;18.206;2023-06-24T14:04:07;25.30;94.30
8684;DHT22;4379;59.744;18.206;2023-06-24T14:06:34;25.50;93.90
8684;DHT22;4379;59.744;18.206;2023-06-24T14:09:01;25.50;93.70
8684;DHT22;4379;59.744;18.206;2023-06-24T14:11:28;25.50;93.60
8684;DHT22;4379;59.744;18.206;2023-06-24T14:13:56;25.50;93.60
8684;DHT22;4379;59.744;18.206;2023-06-24T14:16:23;25.50;93.20
8684;DHT22;4379;59.744;18.206;2023-06-24T14:18:50;25.50;93.50
8684;DHT22;4379;59.744;18.206;2023-06-24T14:21:18;25.70;93.70
8684;DHT22;4379;59.744;18.206;2023-06-24T14:23:45;26.00;93.40
8684;DHT22;4379;59.744;18.206;2023-06-24T14:26:12;26.00;92.70
8684;DHT22;4379;59.744;18.206;2023-06-24T14:28:40;25.90;92.90
8684;DHT22;4379;59.744;18.206;2023-06-24T14:31:07;25.90;93.40
8684;DHT22;4379;59.744;18.206;2023-06-24T14:33:34;25.80;93.20
8684;DHT22;4379;59.744;18.206;2023-06-24T14:36:02;25.60;93.70
8684;DHT22;4379;59.744;18.206;2023-06-24T14:38:29;25.70;93.50
8684;DHT22;4379;59.744;18.206;2023-06-24T14:40:56;25.90;93.10
8684;DHT22;4379;59.744;18.206;2023-06-24T14:43:24;25.70;93.10
8684;DHT22;4379;59.744;18.206;2023-06-24T14:45:51;25.80;92.70
8684;DHT22;4379;59.744;18.206;2023-06-24T14:48:19;26.00;93.00
8684;DHT22;4379;59.744;18.206;2023-06-24T14:50:46;26.10;92.90
8684;DHT22;4379;59.744;18.206;2023-06-24T14:53:13;26.20;92.60
8684;DHT22;4379;59.744;18.206;2023-06-24T14:55:41;26.00;92.60
8684;DHT22;4379;59.744;18.206;2023-06-24T14:58:08;25.90;92.60
8684;DHT22;4379;59.744;18.206;2023-06-24T15:00:36;25.90;92.90
8684;DHT22;4379;59.744;18.206;2023-06-24T15:03:04;25.80;92.40
8684;DHT22;4379;59.744;18.206;2023-06-24T15:05:31;25.30;92.80
8684;DHT22;4379;59.744;18.206;2023-06-24T15:08:01;25.20;93.20
8684;DHT22;4379;59.744;18.206;2023-06-24T15:10:29;24.90;93.80
8684;DHT22;4379;59.744;18.206;2023-06-24T15:12:56;25.00;93.40
8684;DHT22;4379;59.744;18.206;2023-06-24T15:15:24;25.40;93.50
8684;DHT22;4379;59.744;18.206;2023-06-24T15:17:51;25.80;93.10
8684;DHT22;4379;59.744;18.206;2023-06-24T15:20:18;26.00;92.60
8684;DHT22;4379;59.744;18.206;2023-06-24T15:22:46;26.10;92.80
8684;DHT22;4379;59.744;18.206;2023-06-24T15:25:14;26.40;92.70
8684;DHT22;4379;59.744;18.206;2023-06-24T15:27:41;26.50;91.90
8684;DHT22;4379;59.744;18.206;2023-06-24T15:30:09;26.50;92.90
8684;DHT22;4379;59.744;18.206;2023-06-24T15:32:36;26.50;92.20
8684;DHT22;4379;59.744;18.206;2023-06-24T15:35:07;26.60;91.90
8684;DHT22;4379;59.744;18.206;2023-06-24T15:37:36;26.70;91.70
8684;DHT22;4379;59.744;18.206;2023-06-24T15:40:04;26.80;91.70
8684;DHT22;4379;59.744;18.206;2023-06-24T15:42:31;26.80;92.10
8684;DHT22;4379;59.744;18.206;2023-06-24T15:44:58;26.80;91.30
8684;DHT22;4379;59.744;18.206;2023-06-24T15:47:26;26.90;91.80
8684;DHT22;4379;59.744;18.206;2023-06-24T15:49:55;26.70;91.80
8684;DHT22;4379;59.744;18.206;2023-06-24T15:52:23;26.60;91.70
8684;DHT22;4379;59.744;18.206;2023-06-24T15:54:50;26.60;91.90
8684;DHT22;4379;59.744;18.206;2023-06-24T15:57:17;26.00;91.80
8684;DHT22;4379;59.744;18.206;2023-06-24T15:59:44;25.80;92.20
8684;DHT22;4379;59.744;18.206;2023-06-24T16:02:12;25.90;92.30
8684;DHT22;4379;59.744;18.206;2023-06-24T16:04:40;25.80;92.20
8684;DHT22;4379;59.744;18.206;2023-06-24T16:07:07;25.90;92.80
8684;DHT22;4379;59.744;18.206;2023-06-24T16:09:35;25.90;92.80
8684;DHT22;4379;59.744;18.206;2023-06-24T16:12:02;26.10;92.90
8684;DHT22;4379;59.744;18.206;2023-06-24T16:14:29;26.00;92.20
8684;DHT22;4379;59.744;18.206;2023-06-24T16:16:57;26.30;92.30
8684;DHT22;4379;59.744;18.206;2023-06-24T16:19:24;26.30;92.10
8684;DHT22;4379;59.744;18.206;2023-06-24T16:21:55;26.30;92.20
8684;DHT22;4379;59.744;18.206;2023-06-24T16:24:22;26.40;92.10